sensor_id;sensor_type;location;lat;lon;timestamp;temperature;humidity
47604;DHT22;33326;51.116;6.900;2023-04-25T00:01:57;7.70;99.90
47604;DHT22;33326;51.116;6.900;2023-04-25T00:07:00;7.80;99.90
47604;DHT22;33326;51.116;6.900;2023-04-25T00:12:04;7.70;99.90
47604;DHT22;33326;51.116;6.900;2023-04-25T00:17:06;7.70;99.90
47604;DHT22;33326;51.116;6.900;2023-04-25T00:22:08;7.60;99.90
47604;DHT22;33326;51.116;6.900;2023-04-25T00:27:11;7.50;99.90
47604;DHT22;33326;51.116;6.900;2023-04-25T00:32:13;7.30;99.90
47604;DHT22;33326;51.116;6.900;2023-04-25T00:37:15;7.50;99.90
47604;DHT22;33326;51.116;6.900;2023-04-25T00:42:20;7.60;99.90
47604;DHT22;33326;51.116;6.900;2023-04-25T00:47:22;7.50;99.90
47604;DHT22;33326;51.116;6.900;2023-04-25T00:52:25;7.50;99.90
47604;DHT22;33326;51.116;6.900;2023-04-25T00:57:28;7.40;99.90
47604;DHT22;33326;51.116;6.900;2023-04-25T01:02:31;7.50;99.90
47604;DHT22;33326;51.116;6.900;2023-04-25T01:07:33;7.70;99.90
47604;DHT22;33326;51.116;6.900;2023-04-25T01:12:37;7.70;99.90
47604;DHT22;33326;51.116;6.900;2023-04-25T01:17:40;7.70;99.90
47604;DHT22;33326;51.116;6.900;2023-04-25T01:22:45;7.80;99.90
47604;DHT22;33326;51.116;6.900;2023-04-25T01:27:47;7.90;99.90
47604;DHT22;33326;51.116;6.900;2023-04-25T01:32:49;8.00;99.90
47604;DHT22;33326;51.116;6.900;2023-04-25T01:37:53;8.10;99.90
47604;DHT22;33326;51.116;6.900;2023-04-25T01:42:55;8.00;99.90
47604;DHT22;33326;51.116;6.900;2023-04-25T01:47:57;8.00;99.90
47604;DHT22;33326;51.116;6.900;2023-04-25T01:53:01;7.90;99.90
47604;DHT22;33326;51.116;6.900;2023-04-25T01:58:03;8.00;99.90
47604;DHT22;33326;51.116;6.900;2023-04-25T02:03:38;8.00;99.90
47604;DHT22;33326;51.116;6.900;2023-04-25T02:08:46;7.90;99.90
47604;DHT22;33326;51.116;6.900;2023-04-25T02:13:50;7.80;99.90
47604;DHT22;33326;51.116;6.900;2023-04-25T02:19:18;7.80;99.90
47604;DHT22;33326;51.116;6.900;2023-04-25T02:24:23;7.80;99.90
47604;DHT22;33326;51.116;6.900;2023-04-25T02:29:25;8.00;99.90
47604;DHT22;33326;51.116;6.900;2023-04-25T02:34:26;7.90;99.90
47604;DHT22;33326;51.116;6.900;2023-04-25T02:39:30;7.80;99.90
47604;DHT22;33326;51.116;6.900;2023-04-25T02:44:32;7.80;99.90
47604;DHT22;33326;51.116;6.900;2023-04-25T02:49:33;7.80;99.90
47604;DHT22;33326;51.116;6.900;2023-04-25T02:54:37;7.70;99.90
47604;DHT22;33326;51.116;6.900;2023-04-25T02:59:39;7.80;99.90
47604;DHT22;33326;51.116;6.900;2023-04-25T03:04:41;7.80;99.90
47604;DHT22;33326;51.116;6.900;2023-04-25T03:09:44;7.80;99.90
47604;DHT22;33326;51.116;6.900;2023-04-25T03:14:46;7.90;99.90
47604;DHT22;33326;51.116;6.900;2023-04-25T03:19:49;8.00;99.90
47604;DHT22;33326;51.116;6.900;2023-04-25T03:24:53;8.10;99.90
47604;DHT22;33326;51.116;6.900;2023-04-25T03:29:55;8.10;99.90
47604;DHT22;33326;51.116;6.900;2023-04-25T03:34:57;8.00;99.90
47604;DHT22;33326;51.116;6.900;2023-04-25T03:40:02;8.10;99.90
47604;DHT22;33326;51.116;6.900;2023-04-25T03:45:25;8.10;99.90
47604;DHT22;33326;51.116;6.900;2023-04-25T03:50:27;7.90;99.90
47604;DHT22;33326;51.116;6.900;2023-04-25T03:55:30;8.00;99.90
47604;DHT22;33326;51.116;6.900;2023-04-25T04:00:32;8.10;99.90
47604;DHT22;33326;51.116;6.900;2023-04-25T04:05:34;8.00;99.90
47604;DHT22;33326;51.116;6.900;2023-04-25T04:10:39;8.00;99.90
47604;DHT22;33326;51.116;6.900;2023-04-25T04:15:42;7.80;99.90
47604;DHT22;33326;51.116;6.900;2023-04-25T04:20:44;7.80;99.90
47604;DHT22;33326;51.116;6.900;2023-04-25T04:25:47;8.00;99.90
47604;DHT22;33326;51.116;6.900;2023-04-25T04:31:02;7.80;99.90
47604;DHT22;33326;51.116;6.900;2023-04-25T04:36:05;7.70;99.90
47604;DHT22;33326;51.116;6.900;2023-04-25T04:41:10;7.80;99.90
47604;DHT22;33326;51.116;6.900;2023-04-25T04:46:34;7.80;99.90
47604;DHT22;33326;51.116;6.900;2023-04-25T04:52:01;7.80;99.90
47604;DHT22;33326;51.116;6.900;2023-04-25T04:57:12;7.70;99.90
47604;DHT22;33326;51.116;6.900;2023-04-25T05:02:40;7.50;99.90
47604;DHT22;33326;51.116;6.900;2023-04-25T05:08:02;7.40;99.90
47604;DHT22;33326;51.116;6.900;2023-04-25T05:13:25;7.50;99.90
47604;DHT22;33326;51.116;6.900;2023-04-25T05:18:46;7.60;99.90
47604;DHT22;33326;51.116;6.900;2023-04-25T05:24:12;7.50;99.90
47604;DHT22;33326;51.116;6.900;2023-04-25T05:29:34;7.60;99.90
47604;DHT22;33326;51.116;6.900;2023-04-25T05:34:47;7.80;99.90
47604;DHT22;33326;51.116;6.900;2023-04-25T05:40:02;7.80;99.90
47604;DHT22;33326;51.116;6.900;2023-04-25T05:45:37;7.80;99.90
47604;DHT22;33326;51.116;6.900;2023-04-25T05:50:57;7.90;99.90
47604;DHT22;33326;51.116;6.900;2023-04-25T05:56:19;8.00;99.90
47604;DHT22;33326;51.116;6.900;2023-04-25T06:01:24;7.80;99.90
47604;DHT22;33326;51.116;6.900;2023-04-25T06:06:27;7.80;99.90
47604;DHT22;33326;51.116;6.900;2023-04-25T06:11:29;8.00;99.90
47604;DHT22;33326;51.116;6.900;2023-04-25T06:16:32;8.30;99.90
47604;DHT22;33326;51.116;6.900;2023-04-25T06:21:34;8.50;99.90
47604;DHT22;33326;51.116;6.900;2023-04-25T06:26:35;8.50;99.90
47604;DHT22;33326;51.116;6.900;2023-04-25T06:31:39;8.50;99.90
47604;DHT22;33326;51.116;6.900;2023-04-25T06:36:42;8.80;99.90
47604;DHT22;33326;51.116;6.900;2023-04-25T06:41:48;8.80;99.90
47604;DHT22;33326;51.116;6.900;2023-04-25T06:47:11;8.90;99.90
47604;DHT22;33326;51.116;6.900;2023-04-25T06:52:15;8.80;99.90
47604;DHT22;33326;51.116;6.900;2023-04-25T06:57:19;8.80;99.90
47604;DHT22;33326;51.116;6.900;2023-04-25T07:02:22;9.10;99.90
47604;DHT22;33326;51.116;6.900;2023-04-25T07:07:27;9.00;99.90
47604;DHT22;33326;51.116;6.900;2023-04-25T07:12:31;9.10;99.90
47604;DHT22;33326;51.116;6.900;2023-04-25T07:17:35;9.10;99.90
47604;DHT22;33326;51.116;6.900;2023-04-25T07:22:37;9.10;99.90
47604;DHT22;33326;51.116;6.900;2023-04-25T07:27:39;9.10;99.90
47604;DHT22;33326;51.116;6.900;2023-04-25T07:33:03;9.00;99.90
47604;DHT22;33326;51.116;6.900;2023-04-25T07:38:05;9.20;99.90
47604;DHT22;33326;51.116;6.900;2023-04-25T07:43:07;9.20;99.90
47604;DHT22;33326;51.116;6.900;2023-04-25T07:48:20;9.60;99.90
47604;DHT22;33326;51.116;6.900;2023-04-25T07:53:26;9.60;99.90
47604;DHT22;33326;51.116;6.900;2023-04-25T07:58:33;9.70;99.90
47604;DHT22;33326;51.116;6.900;2023-04-25T08:03:39;9.60;99.90
47604;DHT22;33326;51.116;6.900;2023-04-25T08:08:48;9.70;99.90
47604;DHT22;33326;51.116;6.900;2023-04-25T08:13:53;9.60;99.90
47604;DHT22;33326;51.116;6.900;2023-04-25T08:18:58;9.30;99.90
47604;DHT22;33326;51.116;6.900;2023-04-25T08:24:01;9.40;99.90
47604;DHT22;33326;51.116;6.900;2023-04-25T08:29:06;9.50;99.90
47604;DHT22;33326;51.116;6.900;2023-04-25T08:34:13;9.20;99.90
47604;DHT22;33326;51.116;6.900;2023-04-25T08:39:27;9.40;99.90
47604;DHT22;33326;51.116;6.900;2023-04-25T08:44:49;9.40;99.90
47604;DHT22;33326;51.116;6.900;2023-04-25T08:49:54;9.50;99.90
47604;DHT22;33326;51.116;6.900;2023-04-25T08:54:57;10.10;99.90
47604;DHT22;33326;51.116;6.900;2023-04-25T09:00:02;10.60;99.90
47604;DHT22;33326;51.116;6.900;2023-04-25T09:05:14;10.60;99.90
47604;DHT22;33326;51.116;6.900;2023-04-25T09:10:17;10.40;99.90
47604;DHT22;33326;51.116;6.900;2023-04-25T09:15:19;10.30;99.90
47604;DHT22;33326;51.116;6.900;2023-04-25T09:20:43;10.50;99.90
47604;DHT22;33326;51.116;6.900;2023-04-25T09:25:47;11.10;99.90
47604;DHT22;33326;51.116;6.900;2023-04-25T09:30:49;11.60;99.90
47604;DHT22;33326;51.116;6.900;2023-04-25T09:36:05;11.80;99.90
47604;DHT22;33326;51.116;6.900;2023-04-25T09:41:23;11.50;99.90
47604;DHT22;33326;51.116;6.900;2023-04-25T09:46:33;11.50;99.90
47604;DHT22;33326;51.116;6.900;2023-04-25T09:51:37;11.50;99.90
47604;DHT22;33326;51.116;6.900;2023-04-25T09:56:41;11.60;99.90
47604;DHT22;33326;51.116;6.900;2023-04-25T10:01:44;11.50;99.90
47604;DHT22;33326;51.116;6.900;2023-04-25T10:06:59;12.40;99.90
47604;DHT22;33326;51.116;6.900;2023-04-25T10:12:02;13.10;99.60
47604;DHT22;33326;51.116;6.900;2023-04-25T10:17:04;12.60;99.90
47604;DHT22;33326;51.116;6.900;2023-04-25T10:22:13;11.70;98.60
47604;DHT22;33326;51.116;6.900;2023-04-25T10:27:16;11.40;98.90
47604;DHT22;33326;51.116;6.900;2023-04-25T10:32:18;11.10;98.40
47604;DHT22;33326;51.116;6.900;2023-04-25T10:37:21;11.30;99.90
47604;DHT22;33326;51.116;6.900;2023-04-25T10:42:23;11.60;99.00
47604;DHT22;33326;51.116;6.900;2023-04-25T10:47:34;12.00;99.10
47604;DHT22;33326;51.116;6.900;2023-04-25T10:52:39;11.90;97.80
47604;DHT22;33326;51.116;6.900;2023-04-25T10:57:42;11.40;97.80
47604;DHT22;33326;51.116;6.900;2023-04-25T11:02:47;11.70;99.20
47604;DHT22;33326;51.116;6.900;2023-04-25T11:07:52;12.20;98.40
47604;DHT22;33326;51.116;6.900;2023-04-25T11:12:55;12.20;97.10
47604;DHT22;33326;51.116;6.900;2023-04-25T11:17:57;13.00;98.60
47604;DHT22;33326;51.116;6.900;2023-04-25T11:23:00;13.90;97.60
47604;DHT22;33326;51.116;6.900;2023-04-25T11:28:02;13.80;95.30
47604;DHT22;33326;51.116;6.900;2023-04-25T11:33:04;14.20;94.60
47604;DHT22;33326;51.116;6.900;2023-04-25T11:38:07;15.30;94.80
47604;DHT22;33326;51.116;6.900;2023-04-25T11:43:09;15.70;95.20
47604;DHT22;33326;51.116;6.900;2023-04-25T11:48:11;16.30;93.60
47604;DHT22;33326;51.116;6.900;2023-04-25T11:53:17;16.00;94.10
47604;DHT22;33326;51.116;6.900;2023-04-25T11:58:19;16.00;91.70
47604;DHT22;33326;51.116;6.900;2023-04-25T12:03:21;16.30;90.70
47604;DHT22;33326;51.116;6.900;2023-04-25T12:08:28;15.70;90.90
47604;DHT22;33326;51.116;6.900;2023-04-25T12:13:31;14.20;91.00
47604;DHT22;33326;51.116;6.900;2023-04-25T12:18:35;15.60;92.80
47604;DHT22;33326;51.116;6.900;2023-04-25T12:23:39;15.50;91.10
47604;DHT22;33326;51.116;6.900;2023-04-25T12:28:45;14.40;91.80
47604;DHT22;33326;51.116;6.900;2023-04-25T12:33:48;13.70;91.40
47604;DHT22;33326;51.116;6.900;2023-04-25T12:38:51;13.60;92.30
47604;DHT22;33326;51.116;6.900;2023-04-25T12:43:53;13.30;92.30
47604;DHT22;33326;51.116;6.900;2023-04-25T12:48:55;13.20;92.90
47604;DHT22;33326;51.116;6.900;2023-04-25T12:53:59;13.00;92.70
47604;DHT22;33326;51.116;6.900;2023-04-25T12:59:01;13.30;93.90
47604;DHT22;33326;51.116;6.900;2023-04-25T13:04:03;14.10;93.20
47604;DHT22;33326;51.116;6.900;2023-04-25T13:09:07;13.80;95.60
47604;DHT22;33326;51.116;6.900;2023-04-25T13:14:09;15.20;95.00
47604;DHT22;33326;51.116;6.900;2023-04-25T13:19:10;17.80;96.10
47604;DHT22;33326;51.116;6.900;2023-04-25T13:24:14;20.90;95.30
47604;DHT22;33326;51.116;6.900;2023-04-25T13:29:16;21.40;91.10
47604;DHT22;33326;51.116;6.900;2023-04-25T13:34:18;21.50;91.60
47604;DHT22;33326;51.116;6.900;2023-04-25T13:39:21;20.80;89.50
47604;DHT22;33326;51.116;6.900;2023-04-25T13:44:23;19.30;84.00
47604;DHT22;33326;51.116;6.900;2023-04-25T13:49:25;17.20;86.60
47604;DHT22;33326;51.116;6.900;2023-04-25T13:54:28;15.90;89.50
47604;DHT22;33326;51.116;6.900;2023-04-25T13:59:30;15.20;92.10
47604;DHT22;33326;51.116;6.900;2023-04-25T14:04:32;15.30;92.10
47604;DHT22;33326;51.116;6.900;2023-04-25T14:09:35;16.30;91.60
47604;DHT22;33326;51.116;6.900;2023-04-25T14:14:37;16.40;90.00
47604;DHT22;33326;51.116;6.900;2023-04-25T14:19:39;15.70;84.50
47604;DHT22;33326;51.116;6.900;2023-04-25T14:24:47;15.30;86.30
47604;DHT22;33326;51.116;6.900;2023-04-25T14:29:49;15.00;86.30
47604;DHT22;33326;51.116;6.900;2023-04-25T14:34:51;16.10;92.00
47604;DHT22;33326;51.116;6.900;2023-04-25T14:39:54;19.60;90.50
47604;DHT22;33326;51.116;6.900;2023-04-25T14:44:56;19.80;82.30
47604;DHT22;33326;51.116;6.900;2023-04-25T14:49:58;21.70;87.80
47604;DHT22;33326;51.116;6.900;2023-04-25T14:55:01;22.20;76.50
47604;DHT22;33326;51.116;6.900;2023-04-25T15:00:06;19.80;78.70
47604;DHT22;33326;51.116;6.900;2023-04-25T15:05:09;18.20;81.00
47604;DHT22;33326;51.116;6.900;2023-04-25T15:10:13;16.50;82.70
47604;DHT22;33326;51.116;6.900;2023-04-25T15:15:16;15.30;85.40
47604;DHT22;33326;51.116;6.900;2023-04-25T15:20:18;15.10;86.00
47604;DHT22;33326;51.116;6.900;2023-04-25T15:25:22;14.80;85.50
47604;DHT22;33326;51.116;6.900;2023-04-25T15:30:33;14.40;87.10
47604;DHT22;33326;51.116;6.900;2023-04-25T15:35:35;13.70;88.30
47604;DHT22;33326;51.116;6.900;2023-04-25T15:40:38;13.70;90.10
47604;DHT22;33326;51.116;6.900;2023-04-25T15:45:42;13.30;90.00
47604;DHT22;33326;51.116;6.900;2023-04-25T15:50:45;14.20;91.30
47604;DHT22;33326;51.116;6.900;2023-04-25T15:55:48;15.00;90.20
47604;DHT22;33326;51.116;6.900;2023-04-25T16:00:50;15.00;90.30
47604;DHT22;33326;51.116;6.900;2023-04-25T16:05:53;14.20;88.90
47604;DHT22;33326;51.116;6.900;2023-04-25T16:10:57;13.60;88.50
47604;DHT22;33326;51.116;6.900;2023-04-25T16:15:58;14.70;92.50
47604;DHT22;33326;51.116;6.900;2023-04-25T16:21:01;15.30;90.40
47604;DHT22;33326;51.116;6.900;2023-04-25T16:26:05;18.10;89.60
47604;DHT22;33326;51.116;6.900;2023-04-25T16:31:08;18.20;79.80
47604;DHT22;33326;51.116;6.900;2023-04-25T16:36:11;17.20;82.00
47604;DHT22;33326;51.116;6.900;2023-04-25T16:41:14;15.90;82.50
47604;DHT22;33326;51.116;6.900;2023-04-25T16:46:16;15.00;83.60
47604;DHT22;33326;51.116;6.900;2023-04-25T16:51:19;14.00;82.90
47604;DHT22;33326;51.116;6.900;2023-04-25T16:56:22;14.10;83.30
47604;DHT22;33326;51.116;6.900;2023-04-25T17:01:24;14.00;85.10
47604;DHT22;33326;51.116;6.900;2023-04-25T17:06:26;13.90;86.10
47604;DHT22;33326;51.116;6.900;2023-04-25T17:11:30;13.60;85.40
47604;DHT22;33326;51.116;6.900;2023-04-25T17:16:35;13.50;85.70
47604;DHT22;33326;51.116;6.900;2023-04-25T17:21:37;13.20;85.90
47604;DHT22;33326;51.116;6.900;2023-04-25T17:26:40;13.40;86.40
47604;DHT22;33326;51.116;6.900;2023-04-25T17:31:43;12.70;85.60
47604;DHT22;33326;51.116;6.900;2023-04-25T17:36:45;12.60;86.50
47604;DHT22;33326;51.116;6.900;2023-04-25T17:41:49;12.40;87.60
47604;DHT22;33326;51.116;6.900;2023-04-25T17:46:51;12.40;85.70
47604;DHT22;33326;51.116;6.900;2023-04-25T17:51:53;12.20;85.50
47604;DHT22;33326;51.116;6.900;2023-04-25T17:56:56;12.10;85.80
47604;DHT22;33326;51.116;6.900;2023-04-25T18:01:58;12.00;86.30
47604;DHT22;33326;51.116;6.900;2023-04-25T18:07:00;11.70;88.60
47604;DHT22;33326;51.116;6.900;2023-04-25T18:12:04;11.50;89.50
47604;DHT22;33326;51.116;6.900;2023-04-25T18:17:07;11.40;90.00
47604;DHT22;33326;51.116;6.900;2023-04-25T18:22:11;11.50;89.90
47604;DHT22;33326;51.116;6.900;2023-04-25T18:27:15;11.10;89.80
47604;DHT22;33326;51.116;6.900;2023-04-25T18:32:17;10.90;90.50
47604;DHT22;33326;51.116;6.900;2023-04-25T18:37:18;10.70;90.70
47604;DHT22;33326;51.116;6.900;2023-04-25T18:42:22;10.70;91.10
47604;DHT22;33326;51.116;6.900;2023-04-25T18:47:24;10.60;91.30
47604;DHT22;33326;51.116;6.900;2023-04-25T18:52:26;10.60;91.20
47604;DHT22;33326;51.116;6.900;2023-04-25T18:57:30;10.50;91.20
47604;DHT22;33326;51.116;6.900;2023-04-25T19:02:33;10.40;91.20
47604;DHT22;33326;51.116;6.900;2023-04-25T19:07:36;10.20;91.30
47604;DHT22;33326;51.116;6.900;2023-04-25T19:12:39;10.20;91.50
47604;DHT22;33326;51.116;6.900;2023-04-25T19:17:42;10.00;91.80
47604;DHT22;33326;51.116;6.900;2023-04-25T19:22:44;10.00;92.00
47604;DHT22;33326;51.116;6.900;2023-04-25T19:27:47;10.00;92.20
47604;DHT22;33326;51.116;6.900;2023-04-25T19:32:49;10.00;92.50
47604;DHT22;33326;51.116;6.900;2023-04-25T19:37:51;9.90;92.80
47604;DHT22;33326;51.116;6.900;2023-04-25T19:42:54;9.90;93.10
47604;DHT22;33326;51.116;6.900;2023-04-25T19:47:56;9.80;93.30
47604;DHT22;33326;51.116;6.900;2023-04-25T19:52:58;9.70;93.50
47604;DHT22;33326;51.116;6.900;2023-04-25T19:58:02;9.70;93.50
47604;DHT22;33326;51.116;6.900;2023-04-25T20:03:07;9.70;93.80
47604;DHT22;33326;51.116;6.900;2023-04-25T20:08:10;9.60;94.00
47604;DHT22;33326;51.116;6.900;2023-04-25T20:13:13;9.40;94.70
47604;DHT22;33326;51.116;6.900;2023-04-25T20:18:15;9.20;95.00
47604;DHT22;33326;51.116;6.900;2023-04-25T20:23:17;9.20;94.70
47604;DHT22;33326;51.116;6.900;2023-04-25T20:28:20;9.20;94.70
47604;DHT22;33326;51.116;6.900;2023-04-25T20:33:22;9.10;94.60
47604;DHT22;33326;51.116;6.900;2023-04-25T20:38:24;9.10;95.00
47604;DHT22;33326;51.116;6.900;2023-04-25T20:43:28;9.00;95.10
47604;DHT22;33326;51.116;6.900;2023-04-25T20:48:30;9.00;95.50
47604;DHT22;33326;51.116;6.900;2023-04-25T20:53:32;9.00;95.50
47604;DHT22;33326;51.116;6.900;2023-04-25T20:58:35;8.80;95.80
47604;DHT22;33326;51.116;6.900;2023-04-25T21:03:38;8.80;96.10
47604;DHT22;33326;51.116;6.900;2023-04-25T21:08:39;8.60;96.50
47604;DHT22;33326;51.116;6.900;2023-04-25T21:13:43;8.60;96.50
47604;DHT22;33326;51.116;6.900;2023-04-25T21:18:45;8.60;96.50
47604;DHT22;33326;51.116;6.900;2023-04-25T21:23:47;8.70;96.60
47604;DHT22;33326;51.116;6.900;2023-04-25T21:28:50;8.70;96.70
47604;DHT22;33326;51.116;6.900;2023-04-25T21:33:53;8.50;96.90
47604;DHT22;33326;51.116;6.900;2023-04-25T21:38:55;8.40;97.10
47604;DHT22;33326;51.116;6.900;2023-04-25T21:43:58;8.30;97.20
47604;DHT22;33326;51.116;6.900;2023-04-25T21:49:00;8.20;97.40
47604;DHT22;33326;51.116;6.900;2023-04-25T21:54:02;8.20;97.90
47604;DHT22;33326;51.116;6.900;2023-04-25T21:59:07;8.10;98.00
47604;DHT22;33326;51.116;6.900;2023-04-25T22:04:09;8.00;98.30
47604;DHT22;33326;51.116;6.900;2023-04-25T22:09:11;7.90;98.50
47604;DHT22;33326;51.116;6.900;2023-04-25T22:14:15;8.00;98.50
47604;DHT22;33326;51.116;6.900;2023-04-25T22:19:17;8.00;98.90
47604;DHT22;33326;51.116;6.900;2023-04-25T22:24:19;7.90;98.90
47604;DHT22;33326;51.116;6.900;2023-04-25T22:29:22;7.80;99.20
47604;DHT22;33326;51.116;6.900;2023-04-25T22:34:24;7.80;99.50
47604;DHT22;33326;51.116;6.900;2023-04-25T22:39:26;7.70;99.90
47604;DHT22;33326;51.116;6.900;2023-04-25T22:44:29;7.70;99.90
47604;DHT22;33326;51.116;6.900;2023-04-25T22:49:31;7.70;99.90
47604;DHT22;33326;51.116;6.900;2023-04-25T22:54:33;7.50;99.90
47604;DHT22;33326;51.116;6.900;2023-04-25T22:59:37;7.40;99.90
47604;DHT22;33326;51.116;6.900;2023-04-25T23:04:39;7.30;99.90
47604;DHT22;33326;51.116;6.900;2023-04-25T23:09:41;7.30;99.90
47604;DHT22;33326;51.116;6.900;2023-04-25T23:14:49;7.30;99.90
47604;DHT22;33326;51.116;6.900;2023-04-25T23:19:51;7.30;99.90
47604;DHT22;33326;51.116;6.900;2023-04-25T23:24:53;7.40;99.90
47604;DHT22;33326;51.116;6.900;2023-04-25T23:29:56;7.30;99.90
47604;DHT22;33326;51.116;6.900;2023-04-25T23:34:58;7.20;99.90
47604;DHT22;33326;51.116;6.900;2023-04-25T23:40:00;7.10;99.90
47604;DHT22;33326;51.116;6.900;2023-04-25T23:45:09;7.10;99.90
47604;DHT22;33326;51.116;6.900;2023-04-25T23:50:12;7.00;99.90
47604;DHT22;33326;51.116;6.900;2023-04-25T23:55:15;7.00;99.90
